createdAt,value
2018-06-13T00:00:53.755Z,91.52
2018-06-13T00:01:53.747Z,90.99
2018-06-13T00:02:53.756Z,91.38
2018-06-13T00:03:53.772Z,90.75
2018-06-13T00:04:53.784Z,90.27
2018-06-13T00:05:53.759Z,89.69
2018-06-13T00:06:53.761Z,90.17
2018-06-13T00:07:53.774Z,90.17
2018-06-13T00:08:53.763Z,89.79
2018-06-13T00:09:53.770Z,88.73
2018-06-13T00:10:53.773Z,88.93
2018-06-13T00:11:53.770Z,89.55
2018-06-13T00:12:53.767Z,90.22
2018-06-13T00:13:53.772Z,89.75
2018-06-13T00:14:53.775Z,89.75
2018-06-13T00:15:53.786Z,89.84
2018-06-13T00:16:53.778Z,89.75
2018-06-13T00:17:53.785Z,88.69
2018-06-13T00:18:53.779Z,88.73
2018-06-13T00:19:53.783Z,88.40
2018-06-13T00:20:53.791Z,88.49
2018-06-13T00:21:53.783Z,88.02
2018-06-13T00:22:53.804Z,87.15
2018-06-13T00:23:53.788Z,88.02
2018-06-13T00:24:53.799Z,87.63
2018-06-13T00:25:53.805Z,86.58
2018-06-13T00:26:53.795Z,86.52
2018-06-13T00:27:53.798Z,86.38
2018-06-13T00:28:53.819Z,86.96
2018-06-13T00:29:53.797Z,86.68
2018-06-13T00:30:53.803Z,86.29
2018-06-13T00:31:53.806Z,86.24
2018-06-13T00:32:53.807Z,86.19
2018-06-13T00:33:53.807Z,86.48
2018-06-13T00:34:53.832Z,86.19
2018-06-13T00:35:53.818Z,86.14
2018-06-13T00:36:53.843Z,86.58
2018-06-13T00:37:53.816Z,85.91
2018-06-13T00:38:53.817Z,85.37
2018-06-13T00:39:53.821Z,85.85
2018-06-13T00:40:53.817Z,86.87
2018-06-13T00:41:53.822Z,86.00
2018-06-13T00:42:53.828Z,86.00
2018-06-13T00:43:53.831Z,86.58
2018-06-13T00:44:53.826Z,86.77
2018-06-13T00:45:53.830Z,87.01
2018-06-13T00:46:53.836Z,86.58
2018-06-13T00:47:53.844Z,86.48
2018-06-13T00:48:53.844Z,86.48
2018-06-13T00:49:53.835Z,85.91
2018-06-13T00:50:53.839Z,86.10
2018-06-13T00:51:53.853Z,85.24
2018-06-13T00:52:53.855Z,86.10
2018-06-13T00:53:53.844Z,86.29
2018-06-13T00:54:53.850Z,85.52
2018-06-13T00:55:53.853Z,85.42
2018-06-13T00:56:53.866Z,84.31
2018-06-13T00:57:53.855Z,84.08
2018-06-13T00:58:53.850Z,84.95
2018-06-13T00:59:53.852Z,84.37
2018-06-13T01:00:53.862Z,83.45
2018-06-13T01:01:53.864Z,83.60
2018-06-13T01:02:53.870Z,83.98
2018-06-13T01:03:53.861Z,84.08
2018-06-13T01:04:53.860Z,83.03
2018-06-13T01:05:53.869Z,84.47
2018-06-13T01:06:53.979Z,84.27
2018-06-13T01:07:53.869Z,83.31
2018-06-13T01:08:53.871Z,83.80
2018-06-13T01:09:53.879Z,82.26
2018-06-13T01:10:53.869Z,81.72
2018-06-13T01:11:53.879Z,81.68
2018-06-13T01:12:53.886Z,81.78
2018-06-13T01:13:53.879Z,81.53
2018-06-13T01:14:53.880Z,81.78
2018-06-13T01:15:53.880Z,81.97
2018-06-13T01:16:53.882Z,82.41
2018-06-13T01:17:53.937Z,82.54
2018-06-13T01:18:53.888Z,81.97
2018-06-13T01:19:53.906Z,82.07
2018-06-13T01:20:53.890Z,81.40
2018-06-13T01:21:53.895Z,82.26
2018-06-13T01:22:53.912Z,81.97
2018-06-13T01:23:53.899Z,81.20
2018-06-13T01:24:53.893Z,81.10
2018-06-13T01:25:53.902Z,82.07
2018-06-13T01:26:53.912Z,82.07
2018-06-13T01:27:53.902Z,81.97
2018-06-13T01:28:53.909Z,81.97
2018-06-13T01:29:53.905Z,81.30
2018-06-13T01:30:53.903Z,81.10
2018-06-13T01:31:53.905Z,80.73
2018-06-13T01:32:53.914Z,81.20
2018-06-13T01:33:53.911Z,80.43
2018-06-13T01:34:53.912Z,80.76
2018-06-13T01:35:53.910Z,80.09
2018-06-13T01:36:53.913Z,80.43
2018-06-13T01:37:53.918Z,81.10
2018-06-13T01:38:53.909Z,81.53
2018-06-13T01:39:53.926Z,80.63
2018-06-13T01:40:53.926Z,81.49
2018-06-13T01:41:53.919Z,81.40
2018-06-13T01:42:53.924Z,80.15
2018-06-13T01:43:53.921Z,81.40
2018-06-13T01:44:53.927Z,80.82
2018-06-13T01:45:53.924Z,81.10
2018-06-13T01:46:53.922Z,80.63
2018-06-13T01:47:53.924Z,80.43
2018-06-13T01:48:53.953Z,80.82
2018-06-13T01:49:53.929Z,80.63
2018-06-13T01:50:53.927Z,80.91
2018-06-13T01:51:53.937Z,80.91
2018-06-13T01:52:53.936Z,81.40
2018-06-13T01:53:53.931Z,80.57
2018-06-13T01:54:53.931Z,79.28
2018-06-13T01:55:53.937Z,80.58
2018-06-13T01:56:53.938Z,81.20
2018-06-13T01:57:53.939Z,80.43
2018-06-13T01:58:53.936Z,79.47
2018-06-13T01:59:53.943Z,79.57
2018-06-13T02:00:53.946Z,80.73
2018-06-13T02:01:53.951Z,80.24
2018-06-13T02:02:53.946Z,80.82
2018-06-13T02:03:53.958Z,81.01
2018-06-13T02:04:53.953Z,79.42
2018-06-13T02:05:53.956Z,79.57
2018-06-13T02:06:53.981Z,79.38
2018-06-13T02:07:53.955Z,79.96
2018-06-13T02:08:53.993Z,79.71
2018-06-13T02:09:53.957Z,79.19
2018-06-13T02:10:53.959Z,79.38
2018-06-13T02:11:53.956Z,79.38
2018-06-13T02:12:53.963Z,79.57
2018-06-13T02:13:53.973Z,79.57
2018-06-13T02:14:53.968Z,79.52
2018-06-13T02:15:53.965Z,79.28
2018-06-13T02:16:53.966Z,80.34
2018-06-13T02:17:53.972Z,79.91
2018-06-13T02:18:53.989Z,80.97
2018-06-13T02:19:53.978Z,80.58
2018-06-13T02:20:53.981Z,80.68
2018-06-13T02:21:54.067Z,81.84
2018-06-13T02:22:53.970Z,81.26
2018-06-13T02:23:53.984Z,80.63
2018-06-13T02:24:53.977Z,80.68
2018-06-13T02:25:54.003Z,80.15
2018-06-13T02:26:53.997Z,80.49
2018-06-13T02:27:53.988Z,80.53
2018-06-13T02:28:53.977Z,80.34
2018-06-13T02:29:53.983Z,80.78
2018-06-13T02:30:53.980Z,80.68
2018-06-13T02:31:53.991Z,80.58
2018-06-13T02:32:54.006Z,81.30
2018-06-13T02:33:53.990Z,80.53
2018-06-13T02:34:53.988Z,80.53
2018-06-13T02:35:53.994Z,80.87
2018-06-13T02:36:53.993Z,80.78
2018-06-13T02:37:54.007Z,80.78
2018-06-13T02:38:53.997Z,80.43
2018-06-13T02:39:53.995Z,80.34
2018-06-13T02:40:53.997Z,80.34
2018-06-13T02:41:54.005Z,81.16
2018-06-13T02:42:54.015Z,81.93
2018-06-13T02:43:54.025Z,81.93
2018-06-13T02:44:54.004Z,81.35
2018-06-13T02:45:54.003Z,81.16
2018-06-13T02:46:54.006Z,80.97
2018-06-13T02:47:54.005Z,79.72
2018-06-13T02:48:54.013Z,80.15
2018-06-13T02:49:54.030Z,80.01
2018-06-13T02:50:54.029Z,80.68
2018-06-13T02:51:54.013Z,81.16
2018-06-13T02:52:54.030Z,81.16
2018-06-13T02:53:54.014Z,82.12
2018-06-13T02:54:54.016Z,80.68
2018-06-13T02:55:54.016Z,81.54
2018-06-13T02:56:54.013Z,81.84
2018-06-13T02:57:54.028Z,80.34
2018-06-13T02:58:54.015Z,80.68
2018-06-13T02:59:54.021Z,81.16
2018-06-13T03:00:54.020Z,80.15
2018-06-13T03:01:54.025Z,80.68
2018-06-13T03:21:04.810Z,84.38
2018-06-13T03:22:04.795Z,84.19
2018-06-13T03:23:04.783Z,83.91
2018-06-13T03:24:04.779Z,83.81
2018-06-13T03:25:04.780Z,83.23
2018-06-13T03:26:04.775Z,83.71
2018-06-13T03:27:04.780Z,84.77
2018-06-13T03:28:04.774Z,84.48
2018-06-13T03:29:04.768Z,84.95
2018-06-13T03:30:04.767Z,84.48
2018-06-13T03:31:04.781Z,83.33
2018-06-13T03:32:04.795Z,82.89
2018-06-13T03:33:04.775Z,81.84
2018-06-13T03:34:04.768Z,82.37
2018-06-13T03:35:04.769Z,82.85
2018-06-13T03:36:04.787Z,83.23
2018-06-13T03:37:04.766Z,83.23
2018-06-13T03:38:04.765Z,83.37
2018-06-13T03:39:04.770Z,83.42
2018-06-13T03:40:04.784Z,84.48
2018-06-13T03:41:04.788Z,84.19
2018-06-13T03:42:04.778Z,84.28
2018-06-13T03:43:04.777Z,84.77
2018-06-13T03:44:04.774Z,84.14
2018-06-13T03:45:04.770Z,84.86
2018-06-13T03:46:04.800Z,85.44
2018-06-13T03:47:04.785Z,84.52
2018-06-13T03:48:04.797Z,84.71
2018-06-13T03:49:04.782Z,84.23
2018-06-13T03:50:04.783Z,83.47
2018-06-13T03:51:04.774Z,83.75
2018-06-13T03:52:04.786Z,85.00
2018-06-13T03:53:04.776Z,84.81
2018-06-13T03:54:04.779Z,85.38
2018-06-13T03:55:04.782Z,85.96
2018-06-13T03:56:04.788Z,84.23
2018-06-13T03:57:04.789Z,83.94
2018-06-13T03:58:04.787Z,84.14
2018-06-13T03:59:04.788Z,84.61
2018-06-13T04:00:04.798Z,84.91
2018-06-13T04:01:04.797Z,86.21
2018-06-13T04:02:04.789Z,85.86
2018-06-13T04:03:04.793Z,84.81
2018-06-13T04:04:04.792Z,84.71
2018-06-13T04:05:04.793Z,85.00
2018-06-13T04:06:04.798Z,85.28
2018-06-13T04:07:04.884Z,86.44
2018-06-13T04:08:04.798Z,85.77
2018-06-13T04:09:04.800Z,85.77
2018-06-13T04:10:04.806Z,86.68
2018-06-13T04:11:04.802Z,86.49
2018-06-13T04:12:04.799Z,86.44
2018-06-13T04:13:04.809Z,85.10
2018-06-13T04:14:04.802Z,85.67
2018-06-13T04:15:04.828Z,86.25
2018-06-13T04:16:04.815Z,86.44
2018-06-13T04:17:04.813Z,86.21
2018-06-13T04:18:04.808Z,85.72
2018-06-13T04:19:04.809Z,85.86
2018-06-13T04:20:04.821Z,86.11
2018-06-13T04:21:04.826Z,86.44
2018-06-13T04:22:04.820Z,86.15
2018-06-13T04:23:04.829Z,85.77
2018-06-13T04:24:04.835Z,85.38
2018-06-13T04:25:04.819Z,85.48
2018-06-13T04:26:04.819Z,85.77
2018-06-13T04:27:04.828Z,86.21
2018-06-13T04:28:04.824Z,86.15
2018-06-13T04:29:04.823Z,85.77
2018-06-13T04:30:04.821Z,84.81
2018-06-13T04:32:25.858Z,84.23
2018-06-13T04:33:25.841Z,84.14
2018-06-13T04:34:25.845Z,84.33
2018-06-13T04:35:25.848Z,85.00
2018-06-13T04:36:25.847Z,84.71
2018-06-13T04:37:25.849Z,85.63
2018-06-13T04:38:25.847Z,85.82
2018-06-13T04:39:25.849Z,85.48
2018-06-13T04:40:25.854Z,84.91
2018-06-13T04:41:25.852Z,86.01
2018-06-13T04:42:25.851Z,86.40
2018-06-13T04:43:25.852Z,86.40
2018-06-13T04:44:25.853Z,86.25
2018-06-13T04:45:25.860Z,85.28
2018-06-13T04:46:25.856Z,85.58
2018-06-13T04:47:25.866Z,85.38
2018-06-13T04:48:25.857Z,85.48
2018-06-13T04:49:25.861Z,86.40
2018-06-13T04:50:25.856Z,86.40
2018-06-13T04:51:25.864Z,86.11
2018-06-13T04:52:25.859Z,85.58
2018-06-13T04:53:25.866Z,84.23
2018-06-13T04:54:25.862Z,84.91
2018-06-13T04:55:25.867Z,85.19
2018-06-13T04:56:25.865Z,84.61
2018-06-13T04:57:25.870Z,85.28
2018-06-13T04:58:25.893Z,85.19
2018-06-13T04:59:25.877Z,83.94
2018-06-13T05:00:25.868Z,84.61
2018-06-13T05:01:25.873Z,84.33
2018-06-13T05:02:25.899Z,84.42
2018-06-13T05:03:25.880Z,83.47
2018-06-13T05:04:25.881Z,83.27
2018-06-13T05:05:25.892Z,83.18
2018-06-13T05:06:25.879Z,83.41
2018-06-13T05:07:25.881Z,84.04
2018-06-13T05:08:25.882Z,84.14
2018-06-13T05:09:25.879Z,84.04
2018-06-13T05:10:25.881Z,83.47
2018-06-13T05:11:25.884Z,83.22
2018-06-13T05:12:25.884Z,82.79
2018-06-13T05:13:25.888Z,83.03
2018-06-13T05:14:25.892Z,82.74
2018-06-13T05:15:25.894Z,83.22
2018-06-13T05:16:25.890Z,83.65
2018-06-13T05:17:25.896Z,83.56
2018-06-13T05:18:25.893Z,83.56
2018-06-13T05:19:25.904Z,84.19
2018-06-13T05:20:25.907Z,84.91
2018-06-13T05:21:25.907Z,84.33
2018-06-13T05:22:25.900Z,84.71
2018-06-13T05:23:25.959Z,84.61
2018-06-13T05:24:25.910Z,84.23
2018-06-13T05:25:25.906Z,83.22
2018-06-13T05:26:25.904Z,83.65
2018-06-13T05:27:25.906Z,83.47
2018-06-13T05:28:25.907Z,83.94
2018-06-13T05:29:25.902Z,83.47
2018-06-13T05:30:25.907Z,84.14
2018-06-13T05:31:25.911Z,83.27
2018-06-13T05:32:25.908Z,83.08
2018-06-13T05:33:25.907Z,84.42
2018-06-13T05:34:25.969Z,84.04
2018-06-13T05:35:25.919Z,84.67
2018-06-13T05:36:25.918Z,84.58
2018-06-13T05:37:25.933Z,84.77
2018-06-13T05:38:25.933Z,83.94
2018-06-13T05:39:25.930Z,82.60
2018-06-13T05:40:25.925Z,82.64
2018-06-13T05:41:25.928Z,82.35
2018-06-13T05:42:25.919Z,82.07
2018-06-13T05:43:25.933Z,82.16
2018-06-13T05:44:25.924Z,81.68
2018-06-13T05:45:25.928Z,82.07
2018-06-13T05:46:25.940Z,82.07
2018-06-13T05:47:25.928Z,82.31
2018-06-13T05:48:25.954Z,82.16
2018-06-13T05:49:25.932Z,81.30
2018-06-13T05:50:25.959Z,81.68
2018-06-13T05:51:25.929Z,81.59
2018-06-13T05:52:25.940Z,81.59
2018-06-13T05:53:25.940Z,82.31
2018-06-13T05:54:25.940Z,82.79
2018-06-13T05:55:25.944Z,81.59
2018-06-13T05:56:25.954Z,81.43
2018-06-13T05:57:25.945Z,80.76
2018-06-13T05:58:25.954Z,81.43
2018-06-13T05:59:25.945Z,80.76
2018-06-13T06:00:25.953Z,81.43
2018-06-13T06:01:26.014Z,81.24
2018-06-13T06:02:25.953Z,81.87
2018-06-13T06:03:25.949Z,81.87
2018-06-13T06:04:25.961Z,81.01
2018-06-13T06:05:25.965Z,80.86
2018-06-13T06:06:25.964Z,80.76
2018-06-13T06:07:25.959Z,80.57
2018-06-13T06:08:25.985Z,80.19
2018-06-13T06:09:25.964Z,80.86
2018-06-13T06:10:26.031Z,80.96
2018-06-13T06:11:25.969Z,81.43
2018-06-13T06:12:25.982Z,80.09
2018-06-13T06:13:25.971Z,79.03
2018-06-13T06:14:25.971Z,79.61
2018-06-13T06:15:25.972Z,79.90
2018-06-13T06:16:25.981Z,79.42
2018-06-13T06:17:25.989Z,78.45
2018-06-13T06:18:25.981Z,78.45
2018-06-13T06:19:25.985Z,78.84
2018-06-13T06:20:25.993Z,78.36
2018-06-13T06:21:25.999Z,78.90
2018-06-13T06:22:25.989Z,79.09
2018-06-13T06:23:26.006Z,79.57
2018-06-13T06:24:25.995Z,79.32
2018-06-13T06:25:25.996Z,78.65
2018-06-13T06:26:25.997Z,78.94
2018-06-13T06:27:26.003Z,79.03
2018-06-13T06:28:26.001Z,79.03
2018-06-13T06:29:26.005Z,78.17
2018-06-13T06:30:26.017Z,77.50
2018-06-13T06:31:26.013Z,76.73
2018-06-13T06:32:26.010Z,75.67
2018-06-13T06:33:26.014Z,76.44
2018-06-13T06:34:26.020Z,75.48
2018-06-13T06:35:26.024Z,75.67
2018-06-13T06:36:26.027Z,76.15
2018-06-13T06:37:26.022Z,75.10
2018-06-13T06:38:26.020Z,75.38
2018-06-13T06:39:26.035Z,75.29
2018-06-13T06:40:26.041Z,75.20
2018-06-13T06:41:26.032Z,75.87
2018-06-13T06:42:26.038Z,76.34
2018-06-13T06:43:26.036Z,75.77
2018-06-13T06:44:26.036Z,75.67
2018-06-13T06:45:26.039Z,75.29
2018-06-13T06:46:26.048Z,75.42
2018-06-13T06:47:26.044Z,75.81
2018-06-13T06:48:26.054Z,75.90
2018-06-13T06:49:26.087Z,75.52
2018-06-13T06:50:26.058Z,75.04
2018-06-13T06:51:26.052Z,74.27
2018-06-13T06:52:26.063Z,74.46
2018-06-13T06:53:26.061Z,74.17
2018-06-13T06:54:26.082Z,74.27
2018-06-13T06:55:26.149Z,74.46
2018-06-13T06:56:26.066Z,74.17
2018-06-13T06:57:26.069Z,74.50
2018-06-13T06:58:26.071Z,74.60
2018-06-13T06:59:26.084Z,73.73
2018-06-13T07:00:26.073Z,74.27
2018-06-13T07:01:26.084Z,74.65
2018-06-13T07:02:26.103Z,75.81
2018-06-13T07:03:26.083Z,75.81
2018-06-13T07:04:26.085Z,75.48
2018-06-13T07:05:26.102Z,76.73
2018-06-13T07:06:26.097Z,77.11
2018-06-13T07:07:26.101Z,77.08
2018-06-13T07:08:26.097Z,78.17
2018-06-13T07:09:26.103Z,77.31
2018-06-13T07:10:26.103Z,77.75
2018-06-13T07:11:26.111Z,77.36
2018-06-13T07:12:26.111Z,78.47
2018-06-13T07:13:26.110Z,78.86
2018-06-13T07:14:26.117Z,78.99
2018-06-13T07:15:26.112Z,78.32
2018-06-13T07:16:26.117Z,78.70
2018-06-13T07:17:26.120Z,78.61
2018-06-13T07:18:26.117Z,78.99
2018-06-13T07:19:26.123Z,78.90
2018-06-13T07:20:26.124Z,78.52
2018-06-13T07:21:26.128Z,77.98
2018-06-13T07:22:26.132Z,77.50
2018-06-13T07:23:26.127Z,77.78
2018-06-13T07:24:26.133Z,77.75
2018-06-13T07:25:26.141Z,77.75
2018-06-13T07:26:26.132Z,77.75
2018-06-13T07:27:26.140Z,77.50
2018-06-13T07:28:26.139Z,76.73
2018-06-13T07:29:26.146Z,76.44
2018-06-13T07:30:26.167Z,76.15
2018-06-13T07:31:26.147Z,75.20
2018-06-13T07:32:26.149Z,75.57
2018-06-13T07:33:26.155Z,76.06
2018-06-13T07:34:26.162Z,75.62
2018-06-13T07:35:26.169Z,75.13
2018-06-13T07:36:26.178Z,74.75
2018-06-13T07:37:26.157Z,75.20
2018-06-13T07:38:26.167Z,75.20
2018-06-13T07:39:26.173Z,75.10
2018-06-13T07:40:26.170Z,75.20
2018-06-13T07:41:26.177Z,75.42
2018-06-13T07:42:26.173Z,75.81
2018-06-13T07:43:26.179Z,75.13
2018-06-13T07:44:26.180Z,75.71
2018-06-13T07:45:26.177Z,74.17
2018-06-13T07:46:26.189Z,74.55
2018-06-13T07:47:26.187Z,74.75
2018-06-13T07:48:26.186Z,74.94
2018-06-13T07:49:26.187Z,73.88
2018-06-13T07:50:26.204Z,74.17
2018-06-13T07:51:26.197Z,74.90
2018-06-13T07:52:26.201Z,74.85
2018-06-13T07:53:26.202Z,74.94
2018-06-13T07:54:26.204Z,73.94
2018-06-13T07:55:26.206Z,74.43
2018-06-13T07:56:26.214Z,74.71
2018-06-13T07:57:26.213Z,74.90
2018-06-13T07:58:26.216Z,74.81
2018-06-13T07:59:26.216Z,75.20
2018-06-13T08:00:26.221Z,75.00
2018-06-13T08:01:26.225Z,75.82
2018-06-13T08:02:26.224Z,76.40
2018-06-13T08:03:26.232Z,76.06
2018-06-13T08:04:26.230Z,75.57
2018-06-13T08:05:26.227Z,75.20
2018-06-13T08:06:36.077Z,75.57
2018-06-13T08:08:19.671Z,75.20
2018-06-13T08:09:19.645Z,76.06
2018-06-13T08:10:19.635Z,75.96
2018-06-13T08:11:19.634Z,73.46
2018-06-13T08:12:19.654Z,72.99
2018-06-13T08:13:19.657Z,72.50
2018-06-13T08:14:19.645Z,71.55
2018-06-13T08:15:19.646Z,72.22
2018-06-13T08:16:19.651Z,70.49
2018-06-13T08:17:19.651Z,70.87
2018-06-13T08:18:19.657Z,69.87
2018-06-13T08:19:19.653Z,70.58
2018-06-13T08:20:19.700Z,71.73
2018-06-13T08:21:19.666Z,71.73
2018-06-13T08:22:19.661Z,72.12
2018-06-13T08:23:19.666Z,72.02
2018-06-13T08:24:19.676Z,72.41
2018-06-13T08:25:19.667Z,73.18
2018-06-13T08:26:19.673Z,73.62
2018-06-13T08:27:19.674Z,73.91
2018-06-13T08:28:19.672Z,73.72
2018-06-13T08:29:19.685Z,73.66
2018-06-13T08:30:19.685Z,73.94
2018-06-13T08:31:19.689Z,73.46
2018-06-13T08:32:19.684Z,72.66
2018-06-13T08:33:19.685Z,73.66
2018-06-13T08:34:19.690Z,72.99
2018-06-13T08:35:19.693Z,73.27
2018-06-13T08:36:19.704Z,72.60
2018-06-13T08:37:19.710Z,73.37
2018-06-13T08:38:19.704Z,71.93
2018-06-13T08:39:19.697Z,69.05
2018-06-13T08:40:19.703Z,69.43
2018-06-13T08:41:19.708Z,69.34
2018-06-13T08:42:19.706Z,69.24
2018-06-13T08:43:19.712Z,69.08
2018-06-13T08:44:19.711Z,67.99
2018-06-13T08:45:19.712Z,67.16
2018-06-13T08:46:19.717Z,66.36
2018-06-13T08:47:19.719Z,67.16
2018-06-13T08:48:19.718Z,67.07
2018-06-13T08:49:19.731Z,68.06
2018-06-13T08:50:19.725Z,68.35
2018-06-13T08:51:19.733Z,66.68
2018-06-13T08:52:19.735Z,67.74
2018-06-13T08:53:19.732Z,66.68
2018-06-13T08:54:19.734Z,67.54
2018-06-13T08:55:19.738Z,66.87
2018-06-13T08:56:19.741Z,68.79
2018-06-13T08:57:19.743Z,67.74
2018-06-13T08:58:19.745Z,66.77
2018-06-13T08:59:19.746Z,67.07
2018-06-13T09:00:19.751Z,67.64
2018-06-13T09:01:19.751Z,67.38
2018-06-13T09:02:19.757Z,66.71
2018-06-13T09:03:19.761Z,67.19
2018-06-13T09:04:19.762Z,66.33
2018-06-13T09:05:19.767Z,66.91
2018-06-13T09:06:19.775Z,65.62
2018-06-13T09:07:19.768Z,65.75
2018-06-13T09:08:19.772Z,65.84
2018-06-13T09:09:19.780Z,65.23
2018-06-13T09:10:19.783Z,66.14
2018-06-13T09:11:19.785Z,65.46
2018-06-13T09:12:19.790Z,65.56
2018-06-13T09:13:19.796Z,65.75
2018-06-13T09:14:19.796Z,65.84
2018-06-13T09:15:19.807Z,64.69
2018-06-13T09:16:19.797Z,63.83
2018-06-13T09:17:19.803Z,64.40
2018-06-13T09:18:19.806Z,63.45
2018-06-13T09:19:19.810Z,64.02
2018-06-13T09:20:19.814Z,63.89
2018-06-13T09:21:19.814Z,64.98
2018-06-13T09:22:19.842Z,63.99
2018-06-13T09:23:19.821Z,63.99
2018-06-13T09:24:19.823Z,63.70
2018-06-13T09:25:19.827Z,64.02
2018-06-13T09:26:19.833Z,63.64
2018-06-13T09:27:19.831Z,62.48
2018-06-13T09:28:19.838Z,63.92
2018-06-13T09:29:19.838Z,62.77
2018-06-13T09:30:19.840Z,62.19
2018-06-13T09:31:19.867Z,62.68
2018-06-13T09:32:19.848Z,61.04
2018-06-13T09:33:19.861Z,61.81
2018-06-13T09:34:19.867Z,60.91
2018-06-13T09:35:19.855Z,61.14
2018-06-13T09:36:19.864Z,61.14
2018-06-13T09:37:19.930Z,60.85
2018-06-13T09:38:19.869Z,61.14
2018-06-13T09:39:19.881Z,60.08
2018-06-13T09:40:19.891Z,60.56
2018-06-13T09:41:19.878Z,63.09
2018-06-13T09:42:19.903Z,61.65
2018-06-13T09:43:19.883Z,61.94
2018-06-13T09:44:19.889Z,62.41
2018-06-13T09:45:19.889Z,61.26
2018-06-13T09:46:19.899Z,60.49
2018-06-13T09:47:23.458Z,59.53
2018-06-13T09:48:19.902Z,60.39
2018-06-13T09:49:19.907Z,59.44
2018-06-13T09:50:19.911Z,59.24
2018-06-13T09:51:19.914Z,59.53
2018-06-13T09:52:19.916Z,59.22
2018-06-13T09:53:19.918Z,59.82
2018-06-13T09:54:19.924Z,59.53
2018-06-13T09:55:19.969Z,59.17
2018-06-13T09:56:19.929Z,58.67
2018-06-13T09:57:19.935Z,58.57
2018-06-13T09:58:19.936Z,58.86
2018-06-13T09:59:19.946Z,59.92
2018-06-13T10:00:19.948Z,61.26
2018-06-13T10:01:19.954Z,59.72
2018-06-13T10:02:19.964Z,59.60
2018-06-13T10:03:19.968Z,61.04
2018-06-13T10:04:19.976Z,61.71
2018-06-13T10:05:19.965Z,61.61
2018-06-13T10:06:19.966Z,62.38
2018-06-13T10:07:19.970Z,62.68
2018-06-13T10:08:19.976Z,62.68
2018-06-13T10:09:19.979Z,62.68
2018-06-13T10:10:20.031Z,62.77
2018-06-13T10:11:20.000Z,62.58
2018-06-13T10:12:20.001Z,62.64
2018-06-13T10:13:19.995Z,63.25
2018-06-13T10:14:20.016Z,62.96
2018-06-13T10:15:20.019Z,62.87
2018-06-13T10:16:20.004Z,63.15
2018-06-13T10:17:20.008Z,63.18
2018-06-13T10:18:20.061Z,64.05
2018-06-13T10:19:20.016Z,62.96
2018-06-13T10:20:20.016Z,62.74
2018-06-13T10:21:20.029Z,63.41
2018-06-13T10:22:20.023Z,63.99
2018-06-13T10:23:20.028Z,63.60
2018-06-13T10:24:20.030Z,63.41
2018-06-13T10:25:20.063Z,63.51
2018-06-13T10:26:20.038Z,64.09
2018-06-13T10:27:20.037Z,63.99
2018-06-13T10:28:20.047Z,63.89
2018-06-13T10:29:20.072Z,64.47
2018-06-13T10:30:20.050Z,64.82
2018-06-13T10:31:20.051Z,65.33
2018-06-13T10:32:20.060Z,65.43
2018-06-13T10:33:20.061Z,65.72
2018-06-13T10:34:20.117Z,65.69
2018-06-13T10:35:20.070Z,66.10
2018-06-13T10:36:20.071Z,65.81
2018-06-13T10:37:20.076Z,65.81
2018-06-13T10:38:20.075Z,66.10
2018-06-13T10:39:20.078Z,65.23
2018-06-13T10:40:20.093Z,65.33
2018-06-13T10:41:20.085Z,65.53
2018-06-13T10:42:20.091Z,65.72
2018-06-13T10:43:20.087Z,66.10
2018-06-13T10:44:20.091Z,65.62
2018-06-13T10:45:20.099Z,65.72
2018-06-13T10:46:20.097Z,65.56
2018-06-13T10:47:20.118Z,65.46
2018-06-13T10:48:20.099Z,65.66
2018-06-13T10:49:20.108Z,65.17
2018-06-13T10:50:20.108Z,65.05
2018-06-13T10:51:20.112Z,66.00
2018-06-13T10:52:20.114Z,65.53
2018-06-13T10:53:20.120Z,65.75
2018-06-13T10:54:20.129Z,64.50
2018-06-13T10:55:20.126Z,64.02
2018-06-13T10:56:20.129Z,64.12
2018-06-13T10:57:20.128Z,63.60
2018-06-13T10:58:20.135Z,64.02
2018-06-13T10:59:20.135Z,63.99
2018-06-13T11:00:20.137Z,64.02
2018-06-13T11:01:20.149Z,63.15
2018-06-13T11:02:20.144Z,62.48
2018-06-13T11:03:20.147Z,61.71
2018-06-13T11:04:20.150Z,61.84
2018-06-13T11:05:20.155Z,60.94
2018-06-13T11:06:20.177Z,59.89
2018-06-13T11:07:20.163Z,60.24
2018-06-13T11:08:20.167Z,61.14
2018-06-13T11:09:20.168Z,61.14
2018-06-13T11:10:20.179Z,60.46
2018-06-13T11:11:20.180Z,60.34
2018-06-13T11:12:20.201Z,60.37
2018-06-13T11:13:20.188Z,61.91
2018-06-13T11:14:20.184Z,60.75
2018-06-13T11:15:20.193Z,60.14
2018-06-13T11:16:20.203Z,60.75
2018-06-13T11:17:20.199Z,60.56
2018-06-13T11:18:20.202Z,60.37
2018-06-13T11:19:20.205Z,60.37
2018-06-13T11:20:20.252Z,61.23
2018-06-13T11:21:20.209Z,59.69
2018-06-13T11:22:20.211Z,59.89
2018-06-13T11:23:20.216Z,59.60
2018-06-13T11:24:20.222Z,61.04
2018-06-13T11:25:20.222Z,61.33
2018-06-13T11:26:20.229Z,61.16
2018-06-13T11:27:20.255Z,59.82
2018-06-13T11:28:20.228Z,60.01
2018-06-13T11:29:20.250Z,59.92
2018-06-13T11:30:20.239Z,60.30
2018-06-13T11:31:20.241Z,59.05
2018-06-13T11:32:20.242Z,60.01
2018-06-13T11:33:20.256Z,59.53
2018-06-13T11:34:20.250Z,60.49
2018-06-13T11:35:20.251Z,59.24
2018-06-13T11:36:20.260Z,60.24
2018-06-13T11:37:20.271Z,58.54
2018-06-13T11:38:20.300Z,58.95
2018-06-13T11:39:20.268Z,59.05
2018-06-13T11:40:20.281Z,59.44
2018-06-13T11:41:20.343Z,57.80
2018-06-13T11:42:20.302Z,57.60
2018-06-13T11:43:20.286Z,58.79
2018-06-13T11:44:20.294Z,58.89
2018-06-13T11:45:20.291Z,58.60
2018-06-13T11:46:20.291Z,58.70
2018-06-13T11:47:20.296Z,59.08
2018-06-13T11:48:20.307Z,58.22
2018-06-13T11:49:20.308Z,58.60
2018-06-13T11:50:20.308Z,58.47
2018-06-13T11:51:20.318Z,59.37
2018-06-13T11:52:20.315Z,59.56
2018-06-13T11:53:20.324Z,58.50
2018-06-13T11:54:20.335Z,58.50
2018-06-13T11:55:20.330Z,57.25
2018-06-13T11:56:20.334Z,56.93
2018-06-13T11:57:20.343Z,57.39
2018-06-13T11:58:20.340Z,57.80
2018-06-13T11:59:20.346Z,58.57
2018-06-13T12:00:20.372Z,58.76
2018-06-13T12:01:20.358Z,58.86
2018-06-13T12:02:20.357Z,59.02
2018-06-13T12:03:20.368Z,59.72
2018-06-13T12:04:20.363Z,59.82
2018-06-13T12:05:20.366Z,60.04
2018-06-13T12:06:20.372Z,60.04
2018-06-13T12:07:20.386Z,58.70
2018-06-13T12:08:20.377Z,59.47
2018-06-13T12:09:20.388Z,58.98
2018-06-13T12:10:20.388Z,58.76
2018-06-13T12:11:20.392Z,60.01
2018-06-13T12:12:20.407Z,59.12
2018-06-13T12:13:20.396Z,59.79
2018-06-13T12:14:20.438Z,59.31
2018-06-13T12:15:20.409Z,60.27
2018-06-13T12:16:20.421Z,61.14
2018-06-13T12:17:20.413Z,62.19
2018-06-13T12:18:20.417Z,62.41
2018-06-13T12:19:20.420Z,62.03
2018-06-13T12:20:20.426Z,62.51
2018-06-13T12:21:20.437Z,62.19
2018-06-13T12:22:20.433Z,61.74
2018-06-13T12:23:20.434Z,61.74
2018-06-13T12:24:20.436Z,61.46
2018-06-13T12:25:20.442Z,60.85
2018-06-13T12:26:20.449Z,61.84
2018-06-13T12:27:20.453Z,60.56
2018-06-13T12:28:20.457Z,61.33
2018-06-13T12:29:20.455Z,62.03
2018-06-13T12:30:20.464Z,61.84
2018-06-13T12:31:20.465Z,61.07
2018-06-13T12:32:20.465Z,60.30
2018-06-13T12:33:20.481Z,58.95
2018-06-13T12:34:20.516Z,57.10
2018-06-13T12:35:20.481Z,57.99
2018-06-13T12:36:20.486Z,57.90
2018-06-13T12:37:20.491Z,57.80
2018-06-13T12:38:20.503Z,57.48
2018-06-13T12:39:20.498Z,57.70
2018-06-13T12:40:20.569Z,57.70
2018-06-13T12:41:20.507Z,59.34
2018-06-13T12:42:20.514Z,59.44
2018-06-13T12:43:20.527Z,60.42
2018-06-13T12:44:20.506Z,61.10
2018-06-13T12:45:20.517Z,59.82
2018-06-13T12:46:20.537Z,59.82
2018-06-13T12:47:20.521Z,60.04
2018-06-13T12:48:20.524Z,59.85
2018-06-13T12:49:20.529Z,60.04
2018-06-13T12:50:20.563Z,58.89
2018-06-13T12:51:20.536Z,59.53
2018-06-13T12:52:20.538Z,59.94
2018-06-13T12:53:20.546Z,60.97
2018-06-13T12:54:20.547Z,62.32
2018-06-13T12:55:20.549Z,62.03
2018-06-13T12:56:20.550Z,62.03
2018-06-13T12:57:20.558Z,61.33
2018-06-13T12:58:20.563Z,62.48
2018-06-13T12:59:20.570Z,62.00
2018-06-13T13:00:20.568Z,61.74
2018-06-13T13:01:20.579Z,61.65
2018-06-13T13:02:20.573Z,60.94
2018-06-13T13:03:20.582Z,59.50
2018-06-13T13:04:20.584Z,60.08
2018-06-13T13:05:20.583Z,59.79
2018-06-13T13:06:20.592Z,59.79
2018-06-13T13:07:20.592Z,60.30
2018-06-13T13:08:20.597Z,59.31
2018-06-13T13:09:20.600Z,59.82
2018-06-13T13:10:20.605Z,59.15
2018-06-13T13:11:20.606Z,59.41
2018-06-13T13:12:20.623Z,59.82
2018-06-13T13:13:20.626Z,59.82